Seastreak Highlands — WDE4031 — position and weather

sailwx.info

Track history (hours):
 
Tides and Currents Weather Stations Pressure Air Temp Water Temp Dewpoint Dewpoint Depression Visibility Wind Speed Wind Dir Waves Ship Positions

Seastreak Highlands

Owner: Seastreak llc, atlantic highlands, NJ. More information available from US FCC via Universal Licensing System and Coast Guard Vessel Documentation Center.

Last reported at 2016-Feb-02 18:33 UTC. Time now 2016-Feb-12 11:58 UTC.
Position N 39°35' W 074°11'.
Warning: this ship's position is 9 days out of date.

Length 44 m.

Type: High speed craft. MMSI: 367347670.

Date/timePositionNaut miles runAvg speedWind from/ knotsBaromVisibWave heightAir tempDewpointWater temp
2016-Feb-02 18:33N 39°35' W 074°11'59 2.6
2016-Feb-01 20:24N 40°33' W 074°02'1214.0
2016-Feb-01 19:33N 40°45' W 073°58'0 0.0
2016-Feb-01 18:33N 40°45' W 073°58'0 0.0
2016-Feb-01 17:30N 40°45' W 073°58'0 0.0
2016-Feb-01 16:34N 40°45' W 073°58'0 0.0
2016-Feb-01 15:33N 40°45' W 073°58'8 7.6
2016-Feb-01 14:34N 40°38' W 074°03'1 0.8
2016-Feb-01 13:34N 40°39' W 074°02'3 3.2
2016-Feb-01 12:34N 40°35' W 074°03'  
2016-Jan-29 23:34N 40°36' W 074°03'1 0.6
2016-Jan-29 22:33N 40°36' W 074°02'2 1.6
2016-Jan-29 21:33N 40°34' W 074°02'9 9.0
2016-Jan-29 20:34N 40°43' W 073°59'10 1.5
2016-Jan-29 14:07N 40°33' W 074°02'1221.0
2016-Jan-29 13:33N 40°45' W 073°58'2013.5
2016-Jan-29 12:06N 40°25' W 074°02'0 0.0
2016-Jan-29 11:33N 40°25' W 074°02'1 0.1
2016-Jan-29 00:05N 40°25' W 074°01'917.4
2016-Jan-28 23:33N 40°35' W 074°02'3 3.3
2016-Jan-28 22:34N 40°38' W 074°03'4 3.9
2016-Jan-28 21:33N 40°34' W 074°02'9 8.8
2016-Jan-28 20:33N 40°42' W 073°60'1816.1
2016-Jan-28 19:27N 40°25' W 073°60'2 1.0
2016-Jan-28 17:33N 40°25' W 074°02'0 0.0
2016-Jan-28 16:23N 40°25' W 074°02'0 0.0
2016-Jan-28 15:28N 40°25' W 074°02'8 6.3
2016-Jan-28 14:14N 40°33' W 074°02'1217.7
2016-Jan-28 13:34N 40°45' W 073°58'2014.3
2016-Jan-28 12:11N 40°25' W 074°02'0 0.0
2016-Jan-28 11:33N 40°25' W 074°02'0 0.0
2016-Jan-28 00:06N 40°25' W 074°02'1017.7
2016-Jan-27 23:33N 40°35' W 074°03'3 3.3
2016-Jan-27 22:34N 40°38' W 074°02'4 4.3
2016-Jan-27 21:33N 40°34' W 074°02'9 8.8
2016-Jan-27 20:33N 40°42' W 073°60'1817.1
2016-Jan-27 19:31N 40°25' W 073°60'0 0.0
2016-Jan-27 18:32N 40°25' W 073°60'0 0.0
2016-Jan-27 17:31N 40°25' W 073°60'0 0.0
2016-Jan-27 16:22N 40°25' W 073°60'0 0.0
2016-Jan-27 15:33N 40°25' W 073°60'0 0.4
2016-Jan-27 14:31N 40°25' W 074°00'2020.5
2016-Jan-27 13:34N 40°45' W 073°58'20 9.8
2016-Jan-27 11:33N 40°25' W 074°02'1 0.1
2016-Jan-27 00:09N 40°25' W 074°01'1117.7
2016-Jan-26 23:33N 40°36' W 074°02'2 1.6
2016-Jan-26 22:33N 40°37' W 074°03'3 3.0
2016-Jan-26 21:33N 40°34' W 074°02'8 7.9
2016-Jan-26 20:34N 40°42' W 073°60'17 8.4
2016-Jan-26 18:33N 40°25' W 074°01'1 0.7
2016-Jan-26 17:17N 40°25' W 074°02'0 0.0
2016-Jan-26 15:32N 40°25' W 074°02'1 0.6
2016-Jan-26 14:27N 40°26' W 074°02'1921.3
2016-Jan-26 13:33N 40°44' W 073°58'1919.0
2016-Jan-26 12:32N 40°25' W 074°02'0 0.1
2016-Jan-26 11:33N 40°25' W 074°02'0 0.0
2016-Jan-26 00:33N 40°25' W 074°02'1110.5
2016-Jan-25 23:34N 40°36' W 074°03'3 2.5
2016-Jan-25 22:34N 40°38' W 074°03'4 4.0
2016-Jan-25 21:33N 40°34' W 074°03'8 8.0
2016-Jan-25 20:34N 40°42' W 074°00'1717.3
2016-Jan-25 19:33N 40°25' W 073°60'0 0.0
2016-Jan-25 18:32N 40°25' W 073°60'0 0.0
2016-Jan-25 17:30N 40°25' W 073°60'0 0.0
2016-Jan-25 16:33N 40°25' W 073°60'0 0.0
2016-Jan-25 15:33N 40°25' W 073°60'9 6.9
2016-Jan-25 14:12N 40°34' W 074°02'1218.0
2016-Jan-25 13:34N 40°45' W 073°58'2014.9
2016-Jan-25 12:14N 40°25' W 074°02'  
Track history (hours):
 
Tides and Currents Weather Stations Pressure Air Temp Water Temp Dewpoint Dewpoint Depression Visibility Wind Speed Wind Dir Waves Ship Positions

Seastreak Highlands

Owner: Seastreak llc, atlantic highlands, NJ. More information available from US FCC via Universal Licensing System and Coast Guard Vessel Documentation Center.

Last reported at 2016-Feb-02 18:33 UTC. Time now 2016-Feb-12 11:58 UTC.
Position N 39°35' W 074°11'.
Warning: this ship's position is 9 days out of date.

Length 44 m.

Type: High speed craft. MMSI: 367347670.

Date/timePositionNaut miles runAvg speedWind from/ knotsBaromVisibWave heightAir tempDewpointWater temp
2016-Feb-02 18:33N 39°35' W 074°11'59 2.6
2016-Feb-01 20:24N 40°33' W 074°02'1214.0
2016-Feb-01 19:33N 40°45' W 073°58'0 0.0
2016-Feb-01 18:33N 40°45' W 073°58'0 0.0
2016-Feb-01 17:30N 40°45' W 073°58'0 0.0
2016-Feb-01 16:34N 40°45' W 073°58'0 0.0
2016-Feb-01 15:33N 40°45' W 073°58'8 7.6
2016-Feb-01 14:34N 40°38' W 074°03'1 0.8
2016-Feb-01 13:34N 40°39' W 074°02'3 3.2
2016-Feb-01 12:34N 40°35' W 074°03'  
2016-Jan-29 23:34N 40°36' W 074°03'1 0.6
2016-Jan-29 22:33N 40°36' W 074°02'2 1.6
2016-Jan-29 21:33N 40°34' W 074°02'9 9.0
2016-Jan-29 20:34N 40°43' W 073°59'10 1.5
2016-Jan-29 14:07N 40°33' W 074°02'1221.0
2016-Jan-29 13:33N 40°45' W 073°58'2013.5
2016-Jan-29 12:06N 40°25' W 074°02'0 0.0
2016-Jan-29 11:33N 40°25' W 074°02'1 0.1
2016-Jan-29 00:05N 40°25' W 074°01'917.4
2016-Jan-28 23:33N 40°35' W 074°02'3 3.3
2016-Jan-28 22:34N 40°38' W 074°03'4 3.9
2016-Jan-28 21:33N 40°34' W 074°02'9 8.8
2016-Jan-28 20:33N 40°42' W 073°60'1816.1
2016-Jan-28 19:27N 40°25' W 073°60'2 1.0
2016-Jan-28 17:33N 40°25' W 074°02'0 0.0
2016-Jan-28 16:23N 40°25' W 074°02'0 0.0
2016-Jan-28 15:28N 40°25' W 074°02'8 6.3
2016-Jan-28 14:14N 40°33' W 074°02'1217.7
2016-Jan-28 13:34N 40°45' W 073°58'2014.3
2016-Jan-28 12:11N 40°25' W 074°02'0 0.0
2016-Jan-28 11:33N 40°25' W 074°02'0 0.0
2016-Jan-28 00:06N 40°25' W 074°02'1017.7
2016-Jan-27 23:33N 40°35' W 074°03'3 3.3
2016-Jan-27 22:34N 40°38' W 074°02'4 4.3
2016-Jan-27 21:33N 40°34' W 074°02'9 8.8
2016-Jan-27 20:33N 40°42' W 073°60'1817.1
2016-Jan-27 19:31N 40°25' W 073°60'0 0.0
2016-Jan-27 18:32N 40°25' W 073°60'0 0.0
2016-Jan-27 17:31N 40°25' W 073°60'0 0.0
2016-Jan-27 16:22N 40°25' W 073°60'0 0.0
2016-Jan-27 15:33N 40°25' W 073°60'0 0.4
2016-Jan-27 14:31N 40°25' W 074°00'2020.5
2016-Jan-27 13:34N 40°45' W 073°58'20 9.8
2016-Jan-27 11:33N 40°25' W 074°02'1 0.1
2016-Jan-27 00:09N 40°25' W 074°01'1117.7
2016-Jan-26 23:33N 40°36' W 074°02'2 1.6
2016-Jan-26 22:33N 40°37' W 074°03'3 3.0
2016-Jan-26 21:33N 40°34' W 074°02'8 7.9
2016-Jan-26 20:34N 40°42' W 073°60'17 8.4
2016-Jan-26 18:33N 40°25' W 074°01'1 0.7
2016-Jan-26 17:17N 40°25' W 074°02'0 0.0
2016-Jan-26 15:32N 40°25' W 074°02'1 0.6
2016-Jan-26 14:27N 40°26' W 074°02'1921.3
2016-Jan-26 13:33N 40°44' W 073°58'1919.0
2016-Jan-26 12:32N 40°25' W 074°02'0 0.1
2016-Jan-26 11:33N 40°25' W 074°02'0 0.0
2016-Jan-26 00:33N 40°25' W 074°02'1110.5
2016-Jan-25 23:34N 40°36' W 074°03'3 2.5
2016-Jan-25 22:34N 40°38' W 074°03'4 4.0
2016-Jan-25 21:33N 40°34' W 074°03'8 8.0
2016-Jan-25 20:34N 40°42' W 074°00'1717.3
2016-Jan-25 19:33N 40°25' W 073°60'0 0.0
2016-Jan-25 18:32N 40°25' W 073°60'0 0.0
2016-Jan-25 17:30N 40°25' W 073°60'0 0.0
2016-Jan-25 16:33N 40°25' W 073°60'0 0.0
2016-Jan-25 15:33N 40°25' W 073°60'9 6.9
2016-Jan-25 14:12N 40°34' W 074°02'1218.0
2016-Jan-25 13:34N 40°45' W 073°58'2014.9
2016-Jan-25 12:14N 40°25' W 074°02'  

Dump ship's entire track history